createdAt,value
2019-04-07T00:00:39.387Z,66.80
2019-04-07T00:03:07.114Z,66.29
2019-04-07T00:05:34.628Z,65.99
2019-04-07T00:08:02.111Z,65.43
2019-04-07T00:10:29.624Z,65.00
2019-04-07T00:12:57.345Z,64.57
2019-04-07T00:15:25.819Z,64.43
2019-04-07T00:17:54.343Z,63.92
2019-04-07T00:20:22.075Z,64.02
2019-04-07T00:22:50.036Z,63.78
2019-04-07T00:25:17.724Z,63.81
2019-04-07T00:27:45.378Z,63.66
2019-04-07T00:30:13.717Z,62.75
2019-04-07T00:32:41.372Z,62.66
2019-04-07T00:35:21.596Z,62.07
2019-04-07T00:37:38.626Z,61.69
2019-04-07T00:40:06.962Z,61.06
2019-04-07T00:42:34.713Z,60.12
2019-04-07T00:45:03.461Z,60.10
2019-04-07T00:47:31.197Z,59.77
2019-04-07T00:49:58.777Z,59.33
2019-04-07T00:52:26.297Z,59.29
2019-04-07T00:54:53.740Z,59.72
2019-04-07T00:57:21.890Z,59.64
2019-04-07T00:59:49.439Z,59.98
2019-04-07T01:02:17.034Z,60.93
2019-04-07T01:04:44.627Z,60.94
2019-04-07T01:07:12.934Z,61.10
2019-04-07T01:09:40.493Z,61.12
2019-04-07T01:12:07.907Z,61.96
2019-04-07T01:14:35.400Z,62.66
2019-04-07T01:17:03.679Z,63.00
2019-04-07T01:19:31.273Z,63.23
2019-04-07T01:21:59.035Z,63.49
2019-04-07T01:24:26.613Z,63.25
2019-04-07T01:26:54.673Z,63.51
2019-04-07T01:29:22.299Z,63.86
2019-04-07T01:31:49.720Z,64.05
2019-04-07T01:34:17.174Z,64.24
2019-04-07T01:36:44.635Z,64.27
2019-04-07T01:39:12.069Z,64.76
2019-04-07T01:41:59.056Z,65.01
2019-04-07T01:44:37.242Z,64.93
2019-04-07T01:47:36.940Z,65.17
2019-04-07T01:50:23.812Z,65.30
2019-04-07T01:53:13.576Z,65.36
2019-04-07T01:56:07.564Z,65.64
2019-04-07T01:59:11.233Z,65.63
2019-04-07T02:01:49.700Z,65.74
2019-04-07T02:04:55.505Z,66.03
2019-04-07T02:07:54.594Z,66.22
2019-04-07T02:10:44.637Z,66.19
2019-04-07T02:13:29.073Z,66.00
2019-04-07T02:16:19.235Z,65.74
2019-04-07T02:19:08.845Z,65.98
2019-04-07T02:22:00.804Z,66.03
2019-04-07T02:24:46.367Z,66.29
2019-04-07T02:27:34.018Z,66.02
2019-04-07T02:30:36.053Z,66.11
2019-04-07T02:33:28.938Z,66.32
2019-04-07T02:36:21.565Z,66.51
2019-04-07T02:39:01.112Z,66.47
2019-04-07T02:41:50.299Z,66.72
2019-04-07T02:44:35.609Z,66.82
2019-04-07T02:47:13.739Z,66.85
2019-04-07T02:50:03.583Z,66.89
2019-04-07T02:52:57.212Z,66.90
2019-04-07T02:55:50.733Z,66.90
2019-04-07T02:58:37.996Z,66.86
2019-04-07T03:01:30.474Z,67.17
2019-04-07T03:04:10.456Z,67.14
2019-04-07T03:07:06.834Z,67.18
2019-04-07T03:10:06.224Z,67.09
2019-04-07T03:12:52.041Z,67.22
2019-04-07T03:15:25.056Z,67.23
2019-04-07T03:18:18.241Z,66.95
2019-04-07T03:21:04.127Z,67.28
2019-04-07T03:23:49.826Z,67.67
2019-04-07T03:26:55.759Z,68.06
2019-04-07T03:29:42.231Z,68.34
2019-04-07T03:32:30.757Z,68.77
2019-04-07T03:35:19.850Z,67.86
2019-04-07T03:38:08.962Z,67.71
2019-04-07T03:40:44.460Z,68.22
2019-04-07T03:43:21.818Z,68.30
2019-04-07T03:46:09.012Z,68.39
2019-04-07T03:48:57.925Z,68.60
2019-04-07T03:51:43.918Z,68.46
2019-04-07T03:54:31.735Z,68.81
2019-04-07T03:57:28.024Z,69.06
2019-04-07T04:00:12.565Z,69.15
2019-04-07T04:02:57.920Z,69.33
2019-04-07T04:05:51.323Z,69.63
2019-04-07T04:08:36.959Z,69.85
2019-04-07T04:11:12.342Z,69.71
2019-04-07T04:14:15.194Z,69.79
2019-04-07T04:16:46.249Z,69.85
2019-04-07T04:19:14.472Z,69.68
2019-04-07T04:21:42.258Z,69.94
2019-04-07T04:24:09.853Z,69.87
2019-04-07T04:26:37.958Z,69.82
2019-04-07T04:29:05.958Z,70.14
2019-04-07T04:31:33.870Z,69.82
2019-04-07T04:34:01.762Z,70.02
2019-04-07T04:36:29.453Z,70.06
2019-04-07T04:38:56.913Z,69.47
2019-04-07T04:41:25.202Z,68.23
2019-04-07T04:43:53.499Z,67.08
2019-04-07T04:46:21.784Z,67.24
2019-04-07T04:48:49.567Z,68.03
2019-04-07T04:51:17.580Z,67.36
2019-04-07T04:53:45.663Z,67.96
2019-04-07T04:56:13.215Z,68.47
2019-04-07T04:58:40.805Z,68.17
2019-04-07T05:01:08.440Z,68.34
2019-04-07T05:03:36.218Z,67.71
2019-04-07T05:06:03.972Z,67.88
2019-04-07T05:08:32.340Z,68.09
2019-04-07T05:11:00.005Z,67.78
2019-04-07T05:13:27.557Z,68.16
2019-04-07T05:15:55.119Z,68.17
2019-04-07T05:18:22.556Z,68.43
2019-04-07T05:20:50.184Z,68.32
2019-04-07T05:23:18.167Z,68.96
2019-04-07T05:25:45.941Z,69.29
2019-04-07T05:28:13.950Z,68.71
2019-04-07T05:30:41.524Z,68.40
2019-04-07T05:33:09.948Z,67.96
2019-04-07T05:35:37.977Z,67.22
2019-04-07T05:38:08.282Z,67.06
2019-04-07T05:40:36.653Z,67.11
2019-04-07T05:43:04.760Z,66.57
2019-04-07T05:45:35.502Z,65.87
2019-04-07T05:48:01.955Z,65.69
2019-04-07T05:50:29.662Z,66.20
2019-04-07T05:52:58.786Z,66.04
2019-04-07T05:55:27.115Z,65.66
2019-04-07T05:57:54.820Z,65.58
2019-04-07T06:00:23.383Z,64.22
2019-04-07T06:02:51.745Z,63.93
2019-04-07T06:05:19.657Z,64.07
2019-04-07T06:07:47.875Z,64.19
2019-04-07T06:10:18.176Z,63.67
2019-04-07T06:12:47.397Z,64.47
2019-04-07T06:15:20.149Z,64.43
2019-04-07T06:17:44.795Z,64.60
2019-04-07T06:20:15.082Z,64.34
2019-04-07T06:22:41.932Z,63.02
2019-04-07T06:25:09.791Z,63.39
2019-04-07T06:27:37.339Z,63.44
2019-04-07T06:30:07.403Z,63.38
2019-04-07T06:32:36.833Z,61.92
2019-04-07T06:35:05.137Z,61.57
2019-04-07T06:37:33.104Z,61.67
2019-04-07T06:40:01.073Z,61.52
2019-04-07T06:42:32.421Z,61.68
2019-04-07T06:45:00.337Z,62.00
2019-04-07T06:47:49.746Z,61.54
2019-04-07T06:50:50.911Z,61.78
2019-04-07T06:53:31.748Z,61.89
2019-04-07T06:56:07.936Z,62.57
2019-04-07T06:58:45.070Z,62.42
2019-04-07T07:01:47.687Z,62.34
2019-04-07T07:04:47.039Z,62.62
2019-04-07T07:07:36.992Z,62.82
2019-04-07T07:10:26.076Z,62.84
2019-04-07T07:13:28.813Z,62.31
2019-04-07T07:16:16.019Z,62.50
2019-04-07T07:18:56.761Z,61.29
2019-04-07T07:21:39.302Z,61.48
2019-04-07T07:24:07.095Z,61.11
2019-04-07T07:26:35.501Z,60.22
2019-04-07T07:29:06.210Z,59.63
2019-04-07T07:31:33.527Z,58.65
2019-04-07T07:34:01.094Z,59.09
2019-04-07T07:36:28.560Z,58.93
2019-04-07T07:39:01.253Z,58.94
2019-04-07T07:41:25.775Z,57.78
2019-04-07T07:43:53.612Z,56.90
2019-04-07T07:46:22.850Z,55.80
2019-04-07T07:48:51.136Z,56.76
2019-04-07T07:51:18.727Z,56.66
2019-04-07T07:53:46.273Z,56.36
2019-04-07T07:56:14.376Z,56.25
2019-04-07T07:58:41.885Z,56.26
2019-04-07T08:01:12.056Z,56.49
2019-04-07T08:03:39.330Z,55.07
2019-04-07T08:06:08.339Z,54.73
2019-04-07T08:08:36.345Z,54.28
2019-04-07T08:11:04.558Z,55.11
2019-04-07T08:13:32.467Z,54.68
2019-04-07T08:16:00.500Z,53.44
2019-04-07T08:18:30.831Z,52.15
2019-04-07T08:20:58.960Z,51.76
2019-04-07T08:23:26.527Z,51.68
2019-04-07T08:25:56.095Z,51.98
2019-04-07T08:28:24.288Z,51.73
2019-04-07T08:30:51.764Z,51.31
2019-04-07T08:33:19.161Z,51.57
2019-04-07T08:35:46.929Z,52.14
2019-04-07T08:38:18.615Z,52.12
2019-04-07T08:40:44.538Z,51.91
2019-04-07T08:43:12.612Z,51.30
2019-04-07T08:45:40.304Z,51.53
2019-04-07T08:48:08.952Z,50.49
2019-04-07T08:50:37.419Z,50.00
2019-04-07T08:53:05.064Z,48.68
2019-04-07T08:55:33.251Z,47.71
2019-04-07T08:58:03.549Z,46.39
2019-04-07T09:00:31.738Z,45.99
2019-04-07T09:03:04.971Z,46.59
2019-04-07T09:05:30.970Z,46.27
2019-04-07T09:07:59.544Z,46.43
2019-04-07T09:10:33.522Z,45.85
2019-04-07T09:13:03.614Z,46.24
2019-04-07T09:15:45.323Z,47.23
2019-04-07T09:18:19.192Z,48.56
2019-04-07T09:21:14.992Z,49.06
2019-04-07T09:24:01.237Z,49.03
2019-04-07T09:26:36.549Z,48.06
2019-04-07T09:29:12.792Z,47.14
2019-04-07T09:31:51.892Z,47.11
2019-04-07T09:34:33.415Z,47.02
2019-04-07T09:37:24.452Z,46.71
2019-04-07T09:40:27.893Z,46.06
2019-04-07T09:43:21.344Z,45.01
2019-04-07T09:46:10.351Z,44.86
2019-04-07T09:48:50.978Z,43.16
2019-04-07T09:51:52.855Z,42.88
2019-04-07T09:54:26.876Z,42.29
2019-04-07T09:57:14.203Z,42.21
2019-04-07T10:00:01.887Z,44.06
2019-04-07T10:02:48.074Z,44.75
2019-04-07T10:05:41.170Z,45.12
2019-04-07T10:08:31.633Z,45.28
2019-04-07T10:11:18.475Z,45.53
2019-04-07T10:13:59.075Z,45.44
2019-04-07T10:16:52.275Z,44.44
2019-04-07T10:19:39.222Z,43.08
2019-04-07T10:22:26.627Z,41.23
2019-04-07T10:25:09.522Z,40.85
2019-04-07T10:28:07.297Z,40.88
2019-04-07T10:30:54.093Z,39.83
2019-04-07T10:33:38.766Z,40.83
2019-04-07T10:36:25.275Z,41.92
2019-04-07T10:39:13.012Z,42.75
2019-04-07T10:41:59.140Z,43.36
2019-04-07T10:44:37.891Z,43.05
2019-04-07T10:47:36.996Z,43.54
2019-04-07T10:50:17.973Z,43.64
2019-04-07T10:52:54.776Z,43.50
2019-04-07T10:55:31.052Z,44.25
2019-04-07T10:58:18.022Z,43.93
2019-04-07T11:00:59.771Z,44.31
2019-04-07T11:03:41.085Z,44.35
2019-04-07T11:06:43.941Z,44.59
2019-04-07T11:09:23.571Z,43.57
2019-04-07T11:12:06.192Z,43.02
2019-04-07T11:14:46.597Z,42.69
2019-04-07T11:17:33.909Z,42.59
2019-04-07T11:20:28.038Z,42.47
2019-04-07T11:23:15.589Z,42.40
2019-04-07T11:26:15.436Z,41.64
2019-04-07T11:29:06.273Z,41.62
2019-04-07T11:31:44.990Z,41.85
2019-04-07T11:34:33.051Z,42.48
2019-04-07T11:37:16.175Z,43.13
2019-04-07T11:40:06.467Z,43.58
2019-04-07T11:42:50.842Z,42.94
2019-04-07T11:45:33.449Z,43.33
2019-04-07T11:48:29.767Z,42.69
2019-04-07T11:51:18.408Z,43.05
2019-04-07T11:54:14.298Z,43.12
2019-04-07T11:57:05.526Z,43.25
2019-04-07T12:00:12.333Z,42.39
2019-04-07T12:03:11.774Z,43.19
2019-04-07T12:05:48.419Z,43.45
2019-04-07T12:08:41.629Z,43.75
2019-04-07T12:11:40.612Z,44.12
2019-04-07T12:14:29.227Z,44.17
2019-04-07T12:17:34.781Z,43.74
2019-04-07T12:20:27.034Z,43.26
2019-04-07T12:23:20.930Z,43.25
2019-04-07T12:26:08.931Z,42.33
2019-04-07T12:28:56.128Z,42.87
2019-04-07T12:31:39.149Z,43.83
2019-04-07T12:34:16.753Z,44.08
2019-04-07T12:37:12.794Z,44.44
2019-04-07T12:39:59.941Z,44.94
2019-04-07T12:42:47.121Z,45.26
2019-04-07T12:45:52.610Z,44.72
2019-04-07T12:48:40.911Z,44.27
2019-04-07T12:51:33.968Z,44.06
2019-04-07T12:54:23.387Z,44.15
2019-04-07T12:57:09.802Z,44.30
2019-04-07T12:59:56.182Z,43.95
2019-04-07T13:02:34.857Z,43.58
2019-04-07T13:05:21.349Z,43.59
2019-04-07T13:08:08.059Z,44.93
2019-04-07T13:10:52.510Z,44.72
2019-04-07T13:13:35.157Z,44.94
2019-04-07T13:16:31.340Z,44.90
2019-04-07T13:19:24.320Z,45.21
2019-04-07T13:22:20.435Z,45.63
2019-04-07T13:25:22.785Z,45.24
2019-04-07T13:28:08.137Z,45.59
2019-04-07T13:30:41.315Z,46.30
2019-04-07T13:33:27.151Z,46.06
2019-04-07T13:36:17.702Z,45.28
2019-04-07T13:39:05.516Z,44.68
2019-04-07T13:41:55.405Z,44.97
2019-04-07T13:44:47.189Z,45.79
2019-04-07T13:47:47.008Z,45.86
2019-04-07T13:50:34.704Z,45.80
2019-04-07T13:53:25.802Z,45.96
2019-04-07T13:56:07.202Z,46.30
2019-04-07T13:59:00.997Z,45.93
2019-04-07T14:01:39.816Z,46.47
2019-04-07T14:04:21.197Z,46.93
2019-04-07T14:07:07.903Z,46.81
2019-04-07T14:10:07.977Z,47.00
2019-04-07T14:13:07.521Z,46.66
2019-04-07T14:16:04.024Z,47.09
2019-04-07T14:18:46.953Z,47.19
2019-04-07T14:21:21.470Z,47.09
2019-04-07T14:24:07.739Z,47.28
2019-04-07T14:27:03.336Z,47.59
2019-04-07T14:29:43.871Z,47.85
2019-04-07T14:32:33.883Z,48.41
2019-04-07T14:35:21.016Z,48.37
2019-04-07T14:38:14.691Z,47.96
2019-04-07T14:41:20.583Z,47.59
2019-04-07T14:43:57.619Z,47.41
2019-04-07T14:46:51.230Z,47.72
2019-04-07T14:49:53.616Z,48.02
2019-04-07T14:52:43.329Z,47.18
2019-04-07T14:55:31.515Z,46.83
2019-04-07T14:58:23.797Z,46.98
2019-04-07T15:01:08.325Z,47.23
2019-04-07T15:03:36.339Z,47.05
2019-04-07T15:06:04.069Z,47.46
2019-04-07T15:08:46.323Z,48.10
2019-04-07T15:11:25.662Z,48.31
2019-04-07T15:13:56.942Z,47.98
2019-04-07T15:16:22.827Z,47.99
2019-04-07T15:18:51.169Z,47.64
2019-04-07T15:21:18.867Z,47.67
2019-04-07T15:23:47.365Z,47.83
2019-04-07T15:26:16.943Z,48.81
2019-04-07T15:28:45.680Z,49.41
2019-04-07T15:31:13.455Z,49.68
2019-04-07T15:33:41.123Z,50.23
2019-04-07T15:36:09.337Z,50.02
2019-04-07T15:38:40.219Z,49.73
2019-04-07T15:41:10.721Z,49.42
2019-04-07T15:43:37.186Z,49.45
2019-04-07T15:46:05.496Z,50.30
2019-04-07T15:48:33.869Z,50.92
2019-04-07T15:51:04.009Z,51.23
2019-04-07T15:53:30.970Z,51.53
2019-04-07T15:56:02.995Z,51.60
2019-04-07T15:58:28.747Z,51.67
2019-04-07T16:00:57.175Z,51.80
2019-04-07T16:03:24.692Z,52.00
2019-04-07T16:05:52.377Z,52.36
2019-04-07T16:08:20.108Z,51.87
2019-04-07T16:10:47.833Z,51.39
2019-04-07T16:13:15.464Z,51.76
2019-04-07T16:15:45.226Z,52.09
2019-04-07T16:18:12.673Z,52.09
2019-04-07T16:20:41.574Z,52.11
2019-04-07T16:23:10.415Z,52.50
2019-04-07T16:25:40.276Z,52.60
2019-04-07T16:28:11.987Z,52.90
2019-04-07T16:30:37.269Z,53.22
2019-04-07T16:33:05.632Z,52.93
2019-04-07T16:35:33.376Z,53.39
2019-04-07T16:38:01.771Z,53.66
2019-04-07T16:40:30.417Z,53.85
2019-04-07T16:43:07.656Z,54.07
2019-04-07T16:45:28.222Z,54.16
2019-04-07T16:47:56.561Z,54.39
2019-04-07T16:50:24.968Z,54.48
2019-04-07T16:52:53.263Z,54.36
2019-04-07T16:55:35.991Z,54.45
2019-04-07T16:58:03.993Z,54.84
2019-04-07T17:00:32.220Z,54.37
2019-04-07T17:03:00.134Z,54.01
2019-04-07T17:05:27.855Z,54.74
2019-04-07T17:07:56.889Z,55.16
2019-04-07T17:10:28.730Z,55.55
2019-04-07T17:12:54.810Z,56.19
2019-04-07T17:15:22.992Z,56.74
2019-04-07T17:17:52.388Z,57.01
2019-04-07T17:20:20.086Z,57.18
2019-04-07T17:22:49.343Z,57.76
2019-04-07T17:25:17.046Z,57.79
2019-04-07T17:27:45.344Z,58.39
2019-04-07T17:30:14.812Z,58.62
2019-04-07T17:32:42.386Z,58.57
2019-04-07T17:35:14.256Z,58.92
2019-04-07T17:37:42.580Z,58.85
2019-04-07T17:40:14.770Z,58.96
2019-04-07T17:42:42.953Z,59.16
2019-04-07T17:45:42.868Z,59.44
2019-04-07T17:48:37.022Z,59.91
2019-04-07T17:51:25.019Z,60.31
2019-04-07T17:54:10.172Z,60.66
2019-04-07T17:57:01.177Z,60.85
2019-04-07T17:59:47.132Z,60.98
2019-04-07T18:02:33.861Z,61.24
2019-04-07T18:05:24.286Z,61.97
2019-04-07T18:08:19.905Z,62.16
2019-04-07T18:11:10.057Z,62.25
2019-04-07T18:14:15.848Z,62.47
2019-04-07T18:17:06.606Z,62.44
2019-04-07T18:19:54.596Z,62.79
2019-04-07T18:22:42.250Z,62.84
2019-04-07T18:25:35.622Z,62.92
2019-04-07T18:28:13.269Z,62.69
2019-04-07T18:31:09.957Z,62.87
2019-04-07T18:33:55.962Z,63.15
2019-04-07T18:36:34.798Z,63.14
2019-04-07T18:39:24.097Z,63.20
2019-04-07T18:42:13.517Z,63.47
2019-04-07T18:45:12.174Z,63.80
2019-04-07T18:47:58.069Z,64.27
2019-04-07T18:50:38.433Z,64.94
2019-04-07T18:53:26.193Z,65.25
2019-04-07T18:56:22.641Z,65.61
2019-04-07T18:58:59.163Z,65.65
2019-04-07T19:01:46.912Z,65.87
2019-04-07T19:04:31.563Z,65.98
2019-04-07T19:07:28.472Z,66.43
2019-04-07T19:10:10.200Z,66.69
2019-04-07T19:13:01.931Z,66.85
2019-04-07T19:15:40.066Z,66.79
2019-04-07T19:18:27.177Z,66.90
2019-04-07T19:21:20.588Z,67.22
2019-04-07T19:24:30.060Z,67.22
2019-04-07T19:27:21.208Z,67.39
2019-04-07T19:30:16.855Z,67.65
2019-04-07T19:32:55.582Z,67.05
2019-04-07T19:35:53.996Z,67.28
2019-04-07T19:38:56.118Z,67.07
2019-04-07T19:41:49.016Z,67.44
2019-04-07T19:44:37.155Z,67.56
2019-04-07T19:47:14.418Z,67.82
2019-04-07T19:50:16.979Z,68.07
2019-04-07T19:53:09.988Z,68.40
2019-04-07T19:55:55.535Z,68.59
2019-04-07T19:58:39.820Z,68.46
2019-04-07T20:01:16.967Z,68.66
2019-04-07T20:04:08.040Z,68.97
2019-04-07T20:06:58.198Z,69.14
2019-04-07T20:09:52.875Z,69.12
2019-04-07T20:12:45.165Z,69.28
2019-04-07T20:15:40.187Z,69.50
2019-04-07T20:18:15.103Z,69.43
2019-04-07T20:21:02.939Z,69.91
2019-04-07T20:24:04.372Z,69.85
2019-04-07T20:27:03.388Z,69.90
2019-04-07T20:29:41.880Z,70.30
2019-04-07T20:32:39.077Z,70.59
2019-04-07T20:35:17.299Z,70.74
2019-04-07T20:38:06.203Z,71.17
2019-04-07T20:40:48.306Z,71.16
2019-04-07T20:43:33.668Z,71.32
2019-04-07T20:46:23.794Z,71.86
2019-04-07T20:49:09.893Z,72.03
2019-04-07T20:51:56.443Z,72.35
2019-04-07T20:55:04.771Z,72.39
2019-04-07T20:58:14.346Z,72.45
2019-04-07T21:00:55.931Z,72.46
2019-04-07T21:03:45.077Z,72.37
2019-04-07T21:06:30.120Z,72.54
2019-04-07T21:09:35.415Z,72.84
2019-04-07T21:12:10.453Z,72.74
2019-04-07T21:15:16.870Z,72.77
2019-04-07T21:17:52.493Z,72.84
2019-04-07T21:20:42.261Z,72.78
2019-04-07T21:23:28.093Z,72.69
2019-04-07T21:26:24.477Z,72.66
2019-04-07T21:28:59.530Z,72.48
2019-04-07T21:31:46.545Z,72.77
2019-04-07T21:34:31.104Z,73.01
2019-04-07T21:37:17.419Z,72.76
2019-04-07T21:40:19.786Z,73.03
2019-04-07T21:43:13.476Z,73.11
2019-04-07T21:45:52.782Z,73.07
2019-04-07T21:48:35.747Z,73.25
2019-04-07T21:51:26.836Z,73.29
2019-04-07T21:54:07.971Z,73.22
2019-04-07T21:56:56.008Z,73.54
2019-04-07T21:59:56.235Z,73.57
2019-04-07T22:02:55.407Z,73.74
2019-04-07T22:05:45.437Z,73.60
2019-04-07T22:08:25.538Z,73.48
2019-04-07T22:10:53.814Z,73.45
2019-04-07T22:13:21.676Z,73.40
2019-04-07T22:15:54.823Z,73.63
2019-04-07T22:18:19.486Z,73.90
2019-04-07T22:20:47.928Z,73.56
2019-04-07T22:23:16.675Z,73.99
2019-04-07T22:25:51.351Z,74.41
2019-04-07T22:28:18.906Z,74.86
2019-04-07T22:30:46.717Z,75.53
2019-04-07T22:33:14.239Z,75.55
2019-04-07T22:35:43.837Z,75.69
2019-04-07T22:38:11.480Z,75.87
2019-04-07T22:40:39.263Z,75.65
2019-04-07T22:43:07.177Z,75.42
2019-04-07T22:45:35.146Z,75.94
2019-04-07T22:48:03.505Z,75.64
2019-04-07T22:50:35.502Z,76.10
2019-04-07T22:53:00.376Z,76.25
2019-04-07T22:55:27.839Z,76.19
2019-04-07T22:57:55.763Z,76.46
2019-04-07T23:00:24.590Z,76.54
2019-04-07T23:02:52.139Z,76.54
2019-04-07T23:05:19.713Z,76.39
2019-04-07T23:07:48.014Z,76.62
2019-04-07T23:10:17.575Z,76.52
2019-04-07T23:12:45.270Z,76.85
2019-04-07T23:15:14.028Z,76.62
2019-04-07T23:17:41.852Z,76.64
2019-04-07T23:20:09.678Z,76.53
2019-04-07T23:22:38.192Z,76.33
2019-04-07T23:25:07.812Z,76.45
2019-04-07T23:27:36.016Z,76.69
2019-04-07T23:30:04.598Z,76.77
2019-04-07T23:32:31.999Z,76.89
2019-04-07T23:35:00.435Z,76.96
2019-04-07T23:37:27.872Z,76.95
2019-04-07T23:39:55.242Z,77.42
2019-04-07T23:42:22.696Z,77.72
2019-04-07T23:44:50.195Z,77.82
2019-04-07T23:47:17.760Z,77.73
2019-04-07T23:49:45.344Z,77.98
2019-04-07T23:52:12.778Z,78.34
2019-04-07T23:54:40.224Z,77.89
2019-04-07T23:57:07.707Z,78.23
2019-04-07T23:59:35.202Z,77.99
